createdAt,value
2023-01-18T00:01:19.493Z,27.27
2023-01-18T00:03:47.292Z,27.87
2023-01-18T00:06:14.475Z,19.90
2023-01-18T00:08:42.618Z,18.60
2023-01-18T00:11:11.739Z,19.37
2023-01-18T00:13:39.683Z,18.57
2023-01-18T00:16:09.007Z,18.07
2023-01-18T00:18:36.319Z,18.80
2023-01-18T00:21:05.006Z,18.57
2023-01-18T00:23:32.682Z,19.43
2023-01-18T00:26:05.143Z,19.03
2023-01-18T00:28:32.917Z,18.87
2023-01-18T00:30:59.845Z,19.00
2023-01-18T00:33:27.129Z,19.83
2023-01-18T00:35:58.654Z,18.80
2023-01-18T00:38:26.667Z,19.27
2023-01-18T00:40:53.976Z,19.03
2023-01-18T00:43:40.047Z,21.43
2023-01-18T00:46:22.035Z,21.30
2023-01-18T00:48:49.625Z,20.20
2023-01-18T00:51:19.240Z,21.03
2023-01-18T00:53:46.992Z,29.53
2023-01-18T00:56:19.250Z,25.83
2023-01-18T00:58:46.798Z,25.80
2023-01-18T01:01:14.241Z,22.40
2023-01-18T01:04:00.116Z,21.10
2023-01-18T01:06:46.658Z,20.13
2023-01-18T01:09:23.988Z,20.67
2023-01-18T01:12:10.317Z,20.83
2023-01-18T01:14:59.731Z,18.20
2023-01-18T01:17:46.905Z,18.07
2023-01-18T01:20:32.617Z,17.77
2023-01-18T01:23:31.429Z,16.97
2023-01-18T01:26:08.461Z,16.30
2023-01-18T01:28:42.639Z,17.63
2023-01-18T01:31:14.830Z,17.13
2023-01-18T01:33:42.661Z,16.20
2023-01-18T01:36:14.842Z,15.90
2023-01-18T01:38:42.079Z,18.93
2023-01-18T01:41:31.066Z,16.83
2023-01-18T01:44:28.136Z,17.37
2023-01-18T01:46:58.698Z,17.27
2023-01-18T01:49:40.140Z,18.20
2023-01-18T01:52:13.182Z,16.50
2023-01-18T01:54:47.702Z,17.77
2023-01-18T01:57:17.379Z,18.27
2023-01-18T01:59:56.346Z,18.33
2023-01-18T02:02:23.738Z,17.57
2023-01-18T02:04:53.779Z,17.30
2023-01-18T02:07:22.238Z,18.73
2023-01-18T02:09:50.627Z,18.47
2023-01-18T02:12:17.897Z,17.33
2023-01-18T02:14:45.011Z,16.97
2023-01-18T02:17:31.601Z,15.67
2023-01-18T02:20:19.603Z,16.27
2023-01-18T02:23:27.741Z,16.27
2023-01-18T02:26:43.809Z,14.97
2023-01-18T02:29:32.750Z,16.93
2023-01-18T02:32:14.820Z,16.67
2023-01-18T02:35:02.643Z,18.17
2023-01-18T02:38:05.213Z,17.60
2023-01-18T02:40:38.180Z,15.70
2023-01-18T02:43:25.799Z,16.40
2023-01-18T02:46:12.491Z,16.00
2023-01-18T02:48:44.130Z,16.47
2023-01-18T02:51:11.996Z,18.30
2023-01-18T02:53:41.513Z,14.87
2023-01-18T02:56:23.456Z,15.33
2023-01-18T02:58:56.644Z,15.53
2023-01-18T03:01:30.744Z,14.37
2023-01-18T03:04:04.170Z,14.63
2023-01-18T03:06:32.215Z,14.23
2023-01-18T03:08:59.958Z,13.90
2023-01-18T03:11:53.929Z,15.07
2023-01-18T03:14:39.350Z,14.70
2023-01-18T03:17:22.005Z,14.87
2023-01-18T03:20:07.237Z,14.93
2023-01-18T03:23:07.143Z,14.60
2023-01-18T03:25:39.866Z,14.63
2023-01-18T03:28:35.546Z,14.67
2023-01-18T03:31:24.860Z,15.77
2023-01-18T03:33:55.841Z,16.40
2023-01-18T03:36:27.087Z,15.63
2023-01-18T03:39:02.120Z,16.47
2023-01-18T03:41:32.504Z,16.30
2023-01-18T03:44:04.567Z,15.23
2023-01-18T03:46:32.362Z,15.80
2023-01-18T03:49:00.166Z,17.10
2023-01-18T03:51:47.387Z,16.30
2023-01-18T03:54:23.624Z,15.50
2023-01-18T03:57:17.687Z,16.50
2023-01-18T03:59:45.395Z,17.17
2023-01-18T04:02:12.313Z,16.93
2023-01-18T04:04:39.765Z,16.70
2023-01-18T04:07:06.688Z,15.37
2023-01-18T04:09:33.934Z,16.63
2023-01-18T04:12:00.971Z,16.37
2023-01-18T04:14:28.164Z,17.13
2023-01-18T04:16:55.182Z,16.90
2023-01-18T04:19:22.472Z,16.20
2023-01-18T04:21:49.375Z,17.40
2023-01-18T04:24:17.271Z,17.80
2023-01-18T04:26:44.226Z,17.13
2023-01-18T04:29:12.316Z,15.83
2023-01-18T04:31:39.364Z,15.80
2023-01-18T04:34:06.704Z,16.00
2023-01-18T04:36:33.767Z,15.23
2023-01-18T04:39:00.993Z,15.83
2023-01-18T04:41:28.718Z,15.20
2023-01-18T04:43:56.202Z,15.07
2023-01-18T04:46:23.226Z,14.23
2023-01-18T04:48:51.817Z,13.67
2023-01-18T04:51:19.265Z,14.30
2023-01-18T04:53:46.720Z,13.83
2023-01-18T04:56:13.804Z,12.70
2023-01-18T04:58:41.037Z,13.13
2023-01-18T05:01:09.708Z,13.17
2023-01-18T05:03:38.244Z,14.50
2023-01-18T05:06:06.826Z,13.10
2023-01-18T05:08:34.663Z,13.63
2023-01-18T05:11:05.770Z,12.40
2023-01-18T05:13:33.471Z,12.57
2023-01-18T05:16:00.963Z,13.50
2023-01-18T05:18:29.094Z,14.27
2023-01-18T05:20:56.214Z,13.60
2023-01-18T05:23:24.341Z,14.43
2023-01-18T05:25:57.927Z,14.87
2023-01-18T05:28:27.207Z,13.13
2023-01-18T05:30:54.983Z,17.17
2023-01-18T05:33:22.996Z,12.77
2023-01-18T05:35:51.257Z,12.63
2023-01-18T05:38:19.440Z,12.23
2023-01-18T05:40:50.210Z,12.27
2023-01-18T05:43:17.816Z,11.10
2023-01-18T05:45:45.120Z,11.30
2023-01-18T05:48:12.711Z,11.57
2023-01-18T05:50:40.406Z,11.57
2023-01-18T05:53:15.829Z,11.80
2023-01-18T05:55:43.151Z,13.00
2023-01-18T05:58:10.789Z,12.70
2023-01-18T06:00:37.809Z,12.90
2023-01-18T06:03:04.996Z,11.00
2023-01-18T06:05:32.013Z,10.63
2023-01-18T06:07:59.667Z,10.17
2023-01-18T06:10:26.578Z,10.47
2023-01-18T06:12:54.145Z,9.97
2023-01-18T06:15:21.126Z,10.20
2023-01-18T06:17:48.381Z,9.90
2023-01-18T06:20:15.624Z,9.37
2023-01-18T06:22:42.917Z,8.80
2023-01-18T06:25:10.307Z,9.83
2023-01-18T06:27:39.366Z,10.23
2023-01-18T06:30:07.378Z,8.93
2023-01-18T06:32:34.759Z,9.33
2023-01-18T06:35:01.731Z,8.67
2023-01-18T06:37:29.028Z,9.20
2023-01-18T06:39:55.941Z,9.57
2023-01-18T06:42:23.184Z,9.13
2023-01-18T06:44:50.311Z,9.63
2023-01-18T06:47:20.007Z,9.60
2023-01-18T06:49:50.166Z,9.23
2023-01-18T06:52:18.043Z,9.27
2023-01-18T06:54:44.976Z,9.27
2023-01-18T06:57:12.646Z,9.70
2023-01-18T06:59:40.240Z,10.50
2023-01-18T07:02:07.775Z,13.23
2023-01-18T07:04:41.362Z,11.40
2023-01-18T07:07:08.730Z,11.23
2023-01-18T07:09:35.760Z,11.33
2023-01-18T07:12:03.070Z,11.50
2023-01-18T07:14:30.000Z,11.20
2023-01-18T07:16:57.344Z,12.20
2023-01-18T07:19:24.266Z,13.20
2023-01-18T07:21:53.756Z,14.73
2023-01-18T07:24:20.827Z,14.30
2023-01-18T07:26:48.351Z,13.93
2023-01-18T07:29:15.571Z,15.07
2023-01-18T07:31:42.849Z,15.93
2023-01-18T07:34:10.553Z,16.43
2023-01-18T07:36:41.973Z,16.50
2023-01-18T07:39:09.824Z,15.37
2023-01-18T07:41:37.629Z,17.43
2023-01-18T07:44:05.250Z,23.63
2023-01-18T07:46:32.702Z,22.67
2023-01-18T07:49:02.326Z,27.57
2023-01-18T07:51:30.344Z,24.23
2023-01-18T07:53:58.034Z,20.23
2023-01-18T07:56:26.022Z,19.33
2023-01-18T07:58:53.358Z,22.57
2023-01-18T08:01:22.299Z,20.73
2023-01-18T08:03:50.231Z,20.70
2023-01-18T08:06:24.978Z,21.63
2023-01-18T08:08:52.464Z,26.40
2023-01-18T08:11:20.285Z,24.67
2023-01-18T08:13:49.295Z,23.00
2023-01-18T08:16:16.631Z,29.57
2023-01-18T08:18:45.565Z,76.00
2023-01-18T08:21:13.487Z,31.13
2023-01-18T08:23:40.848Z,30.07
2023-01-18T08:26:09.230Z,22.87
2023-01-18T08:28:36.590Z,31.77
2023-01-18T08:31:08.454Z,25.47
2023-01-18T08:33:45.402Z,25.77
2023-01-18T08:36:15.653Z,23.80
2023-01-18T08:38:43.181Z,24.13
2023-01-18T08:41:10.588Z,32.73
2023-01-18T08:43:37.645Z,22.73
2023-01-18T08:46:05.035Z,26.93
2023-01-18T08:48:32.334Z,28.07
2023-01-18T08:51:03.509Z,49.50
2023-01-18T08:53:31.638Z,48.80
2023-01-18T08:55:59.064Z,37.27
2023-01-18T08:58:26.113Z,28.47
2023-01-18T09:00:54.099Z,28.93
2023-01-18T09:03:22.142Z,26.17
2023-01-18T09:05:49.602Z,25.17
2023-01-18T09:08:17.583Z,24.47
2023-01-18T09:10:45.247Z,21.47
2023-01-18T09:13:12.568Z,21.77
2023-01-18T09:15:39.829Z,44.77
2023-01-18T09:18:08.383Z,41.13
2023-01-18T09:20:36.318Z,30.07
2023-01-18T09:23:05.264Z,23.80
2023-01-18T09:25:33.397Z,64.43
2023-01-18T09:28:02.094Z,36.17
2023-01-18T09:30:30.040Z,34.27
2023-01-18T09:32:58.488Z,29.60
2023-01-18T09:35:26.280Z,29.57
2023-01-18T09:37:55.048Z,33.10
2023-01-18T09:40:25.295Z,28.33
2023-01-18T09:42:53.404Z,25.23
2023-01-18T09:45:27.765Z,22.70
2023-01-18T09:48:05.161Z,49.27
2023-01-18T09:50:41.895Z,22.70
2023-01-18T09:53:16.348Z,21.67
2023-01-18T09:56:09.557Z,23.13
2023-01-18T09:59:02.882Z,22.87
2023-01-18T10:01:33.401Z,31.60
2023-01-18T10:04:30.261Z,25.60
2023-01-18T10:07:00.988Z,23.20
2023-01-18T10:09:31.777Z,22.17
2023-01-18T10:12:23.775Z,22.97
2023-01-18T10:15:07.607Z,22.30
2023-01-18T10:17:38.951Z,21.87
2023-01-18T10:20:14.752Z,25.50
2023-01-18T10:22:49.530Z,21.00
2023-01-18T10:25:41.922Z,34.33
2023-01-18T10:28:18.449Z,28.93
2023-01-18T10:31:22.514Z,24.07
2023-01-18T10:33:53.924Z,27.57
2023-01-18T10:36:34.729Z,103.10
2023-01-18T10:39:04.825Z,64.70
2023-01-18T10:41:36.605Z,38.07
2023-01-18T10:44:04.209Z,23.77
2023-01-18T10:46:32.117Z,35.60
2023-01-18T10:48:59.423Z,47.00
2023-01-18T10:51:26.325Z,42.37
2023-01-18T10:53:53.758Z,22.80
2023-01-18T10:56:24.691Z,24.13
2023-01-18T10:58:52.079Z,59.63
2023-01-18T11:01:22.760Z,76.17
2023-01-18T11:03:52.384Z,98.67
2023-01-18T11:06:20.751Z,170.80
2023-01-18T11:08:49.445Z,82.57
2023-01-18T11:11:50.799Z,57.33
2023-01-18T11:14:27.282Z,48.33
2023-01-18T11:17:02.516Z,53.83
2023-01-18T11:19:30.373Z,30.20
2023-01-18T11:21:57.443Z,46.25
2023-01-18T11:24:28.621Z,29.03
2023-01-18T11:27:04.358Z,25.60
2023-01-18T11:29:34.847Z,24.97
2023-01-18T11:32:09.667Z,28.23
2023-01-18T11:34:39.557Z,37.50
2023-01-18T11:37:34.456Z,35.53
2023-01-18T11:40:20.570Z,32.33
2023-01-18T11:42:49.196Z,53.23
2023-01-18T11:45:31.227Z,52.57
2023-01-18T11:48:11.670Z,52.93
2023-01-18T11:50:43.930Z,42.47
2023-01-18T11:53:21.658Z,33.47
2023-01-18T11:56:07.411Z,36.33
2023-01-18T11:58:35.795Z,34.60
2023-01-18T12:01:33.929Z,33.40
2023-01-18T12:04:09.631Z,29.83
2023-01-18T12:07:04.403Z,59.43
2023-01-18T12:09:52.706Z,64.27
2023-01-18T12:12:49.011Z,64.13
2023-01-18T12:15:29.869Z,53.08
2023-01-18T12:18:13.314Z,50.53
2023-01-18T12:20:43.665Z,50.35
2023-01-18T12:23:26.041Z,32.08
2023-01-18T12:26:21.088Z,32.50
2023-01-18T12:28:56.468Z,21.13
2023-01-18T12:31:26.320Z,19.63
2023-01-18T12:34:01.554Z,23.67
2023-01-18T12:36:55.516Z,35.03
2023-01-18T12:39:35.157Z,34.78
2023-01-18T12:42:12.580Z,25.73
2023-01-18T12:45:02.224Z,33.53
2023-01-18T12:47:39.490Z,36.30
2023-01-18T12:50:18.839Z,18.33
2023-01-18T12:52:49.516Z,18.13
2023-01-18T12:55:21.377Z,16.37
2023-01-18T12:57:55.239Z,20.57
2023-01-18T13:00:33.614Z,21.40
2023-01-18T13:03:04.005Z,27.37
2023-01-18T13:05:52.620Z,21.47
2023-01-18T13:08:40.083Z,19.13
2023-01-18T13:11:14.973Z,18.63
2023-01-18T13:13:42.758Z,21.67
2023-01-18T13:16:31.862Z,21.33
2023-01-18T13:19:03.749Z,17.00
2023-01-18T13:21:42.947Z,22.00
2023-01-18T13:24:47.507Z,16.07
2023-01-18T13:27:16.467Z,18.83
2023-01-18T13:29:44.106Z,17.17
2023-01-18T13:32:27.750Z,17.10
2023-01-18T13:35:22.630Z,17.60
2023-01-18T13:37:55.711Z,17.30
2023-01-18T13:40:42.374Z,16.80
2023-01-18T13:43:37.846Z,16.77
2023-01-18T13:46:07.897Z,19.33
2023-01-18T13:48:52.911Z,16.87
2023-01-18T13:51:47.465Z,17.80
2023-01-18T13:54:23.871Z,21.97
2023-01-18T13:57:05.634Z,17.50
2023-01-18T13:59:36.429Z,16.13
2023-01-18T14:02:28.079Z,15.57
2023-01-18T14:05:26.027Z,16.50
2023-01-18T14:07:56.031Z,15.20
2023-01-18T14:10:31.439Z,16.23
2023-01-18T14:13:01.252Z,16.43
2023-01-18T14:15:43.899Z,15.63
2023-01-18T14:18:28.601Z,14.73
2023-01-18T14:21:29.865Z,14.63
2023-01-18T14:24:21.048Z,13.80
2023-01-18T14:26:48.749Z,17.87
2023-01-18T14:29:20.576Z,16.07
2023-01-18T14:31:51.582Z,15.57
2023-01-18T14:34:35.388Z,14.10
2023-01-18T14:37:03.824Z,20.10
2023-01-18T14:39:33.282Z,37.33
2023-01-18T14:42:04.167Z,22.53
2023-01-18T14:44:57.029Z,22.77
2023-01-18T14:47:32.140Z,19.83
2023-01-18T14:50:00.869Z,22.33
2023-01-18T14:52:31.291Z,19.23
2023-01-18T14:54:58.882Z,27.20
2023-01-18T14:57:26.313Z,29.10
2023-01-18T14:59:57.074Z,29.10
2023-01-18T15:02:29.400Z,36.50
2023-01-18T15:05:17.242Z,31.70
2023-01-18T15:07:56.931Z,19.17
2023-01-18T15:10:24.465Z,13.93
2023-01-18T15:12:54.845Z,20.47
2023-01-18T15:15:26.184Z,8.70
2023-01-18T15:17:56.688Z,8.17
2023-01-18T15:20:23.919Z,6.67
2023-01-18T15:22:53.515Z,10.33
2023-01-18T15:25:26.568Z,7.37
2023-01-18T15:27:54.856Z,8.00
2023-01-18T15:30:23.761Z,8.10
2023-01-18T15:32:54.930Z,8.60
2023-01-18T15:35:23.869Z,8.30
2023-01-18T15:37:51.414Z,9.90
2023-01-18T15:40:18.549Z,7.47
2023-01-18T15:43:04.269Z,7.53
2023-01-18T15:45:40.519Z,6.23
2023-01-18T15:48:10.074Z,6.07
2023-01-18T15:50:56.840Z,5.93
2023-01-18T15:53:24.126Z,7.03
2023-01-18T15:55:53.566Z,6.50
2023-01-18T15:58:39.269Z,6.70
2023-01-18T16:01:22.289Z,55.00
2023-01-18T16:03:49.625Z,15.83
2023-01-18T16:06:19.960Z,37.40
2023-01-18T16:09:14.563Z,9.40
2023-01-18T16:11:41.694Z,8.03
2023-01-18T16:14:38.337Z,7.10
2023-01-18T16:17:14.274Z,19.63
2023-01-18T16:19:46.479Z,18.30
2023-01-18T16:22:43.735Z,8.67
2023-01-18T16:25:23.503Z,9.30
2023-01-18T16:27:55.172Z,6.93
2023-01-18T16:30:36.607Z,7.83
2023-01-18T16:33:09.940Z,7.97
2023-01-18T16:35:39.862Z,8.53
2023-01-18T16:38:17.402Z,17.57
2023-01-18T16:40:47.105Z,9.87
2023-01-18T16:43:24.263Z,7.47
2023-01-18T16:45:53.010Z,6.80
2023-01-18T16:48:25.933Z,8.07
2023-01-18T16:50:56.037Z,7.90
2023-01-18T16:53:23.454Z,6.90
2023-01-18T16:55:50.943Z,6.20
2023-01-18T16:58:18.981Z,13.30
2023-01-18T17:00:50.109Z,12.30
2023-01-18T17:03:17.257Z,7.30
2023-01-18T17:05:44.540Z,8.50
2023-01-18T17:08:15.942Z,10.10
2023-01-18T17:10:46.094Z,8.10
2023-01-18T17:13:13.486Z,8.37
2023-01-18T17:15:41.851Z,8.60
2023-01-18T17:18:15.686Z,9.90
2023-01-18T17:20:43.816Z,17.70
2023-01-18T17:23:11.040Z,12.67
2023-01-18T17:25:38.797Z,10.03
2023-01-18T17:28:05.911Z,8.87
2023-01-18T17:30:33.545Z,9.57
2023-01-18T17:33:01.557Z,7.97
2023-01-18T17:35:32.090Z,9.97
2023-01-18T17:38:05.370Z,10.47
2023-01-18T17:40:43.860Z,10.73
2023-01-18T17:43:15.161Z,11.90
2023-01-18T17:45:48.412Z,10.13
2023-01-18T17:48:18.279Z,10.77
2023-01-18T17:50:45.568Z,11.23
2023-01-18T17:53:12.610Z,12.17
2023-01-18T17:55:40.446Z,11.77
2023-01-18T17:58:07.541Z,10.27
2023-01-18T18:00:34.924Z,26.10
2023-01-18T18:03:02.531Z,18.03
2023-01-18T18:05:29.843Z,9.13
2023-01-18T18:07:57.026Z,10.00
2023-01-18T18:10:24.331Z,11.03
2023-01-18T18:12:51.420Z,29.73
2023-01-18T18:15:23.446Z,42.10
2023-01-18T18:17:50.815Z,9.63
2023-01-18T18:20:18.275Z,11.27
2023-01-18T18:22:45.419Z,13.07
2023-01-18T18:25:12.735Z,19.30
2023-01-18T18:27:47.613Z,43.50
2023-01-18T18:30:16.803Z,14.10
2023-01-18T18:32:43.956Z,11.37
2023-01-18T18:35:24.324Z,21.57
2023-01-18T18:37:53.626Z,21.40
2023-01-18T18:40:21.669Z,11.17
2023-01-18T18:43:04.504Z,9.37
2023-01-18T18:45:32.879Z,10.13
2023-01-18T18:48:00.536Z,10.67
2023-01-18T18:50:28.516Z,9.50
2023-01-18T18:52:55.726Z,10.70
2023-01-18T18:55:23.607Z,12.47
2023-01-18T18:57:51.021Z,9.67
2023-01-18T19:00:18.963Z,13.50
2023-01-18T19:02:46.000Z,9.13
2023-01-18T19:05:13.291Z,9.60
2023-01-18T19:07:42.673Z,34.90
2023-01-18T19:10:11.629Z,20.87
2023-01-18T19:12:38.786Z,10.90
2023-01-18T19:15:06.569Z,10.03
2023-01-18T19:17:33.580Z,10.10
2023-01-18T19:20:01.572Z,10.20
2023-01-18T19:22:29.029Z,10.57
2023-01-18T19:24:56.395Z,9.47
2023-01-18T19:27:24.667Z,10.17
2023-01-18T19:29:53.444Z,19.53
2023-01-18T19:32:20.771Z,50.73
2023-01-18T19:34:48.144Z,11.83
2023-01-18T19:37:15.455Z,15.30
2023-01-18T19:39:42.773Z,13.57
2023-01-18T19:42:09.821Z,9.57
2023-01-18T19:44:37.176Z,12.40
2023-01-18T19:47:04.209Z,10.33
2023-01-18T19:49:31.684Z,14.63
2023-01-18T19:51:58.934Z,11.13
2023-01-18T19:54:26.667Z,11.97
2023-01-18T19:56:53.628Z,13.70
2023-01-18T19:59:21.170Z,10.83
2023-01-18T20:01:48.371Z,10.00
2023-01-18T20:04:16.447Z,9.93
2023-01-18T20:06:45.970Z,10.77
2023-01-18T20:09:27.092Z,13.30
2023-01-18T20:11:59.813Z,10.90
2023-01-18T20:14:40.315Z,12.67
2023-01-18T20:17:14.641Z,10.90
2023-01-18T20:19:44.166Z,20.00
2023-01-18T20:22:11.453Z,14.27
2023-01-18T20:24:39.106Z,12.03
2023-01-18T20:27:15.429Z,13.27
2023-01-18T20:29:44.821Z,28.70
2023-01-18T20:32:16.742Z,17.50
2023-01-18T20:34:47.065Z,16.67
2023-01-18T20:37:15.469Z,18.13
2023-01-18T20:39:43.082Z,16.03
2023-01-18T20:42:10.318Z,13.20
2023-01-18T20:44:37.706Z,14.30
2023-01-18T20:47:05.172Z,22.53
2023-01-18T20:49:38.402Z,16.83
2023-01-18T20:52:07.160Z,14.67
2023-01-18T20:54:36.380Z,15.87
2023-01-18T20:57:05.471Z,24.37
2023-01-18T20:59:33.254Z,25.77
2023-01-18T21:02:00.624Z,27.90
2023-01-18T21:04:28.249Z,24.13
2023-01-18T21:06:57.356Z,21.97
2023-01-18T21:09:25.867Z,29.67
2023-01-18T21:11:53.109Z,29.07
2023-01-18T21:14:21.185Z,20.80
2023-01-18T21:16:48.547Z,26.50
2023-01-18T21:19:16.332Z,18.33
2023-01-18T21:21:44.621Z,21.40
2023-01-18T21:24:12.232Z,14.27
2023-01-18T21:26:39.409Z,14.30
2023-01-18T21:29:06.967Z,14.33
2023-01-18T21:31:34.093Z,11.97
2023-01-18T21:34:01.703Z,10.67
2023-01-18T21:36:28.660Z,9.27
2023-01-18T21:38:56.429Z,10.80
2023-01-18T21:41:41.843Z,11.90
2023-01-18T21:44:30.003Z,11.93
2023-01-18T21:46:57.137Z,12.97
2023-01-18T21:50:14.946Z,13.83
2023-01-18T21:52:49.104Z,14.00
2023-01-18T21:55:17.058Z,15.43
2023-01-18T21:57:44.293Z,16.83
2023-01-18T22:00:12.135Z,16.07
2023-01-18T22:02:39.170Z,16.00
2023-01-18T22:05:08.689Z,15.90
2023-01-18T22:07:35.754Z,15.00
2023-01-18T22:10:05.660Z,19.70
2023-01-18T22:12:35.291Z,17.23
2023-01-18T22:15:04.449Z,20.93
2023-01-18T22:17:31.754Z,17.47
2023-01-18T22:19:59.816Z,16.83
2023-01-18T22:22:26.743Z,16.13
2023-01-18T22:24:54.214Z,16.03
2023-01-18T22:27:21.151Z,16.00
2023-01-18T22:29:48.565Z,16.60
2023-01-18T22:32:16.324Z,15.20
2023-01-18T22:34:43.695Z,15.97
2023-01-18T22:37:10.698Z,18.87
2023-01-18T22:39:37.977Z,17.70
2023-01-18T22:42:05.118Z,26.43
2023-01-18T22:44:32.925Z,20.03
2023-01-18T22:47:00.196Z,18.77
2023-01-18T22:49:27.512Z,19.43
2023-01-18T22:51:54.406Z,18.10
2023-01-18T22:54:23.001Z,17.23
2023-01-18T22:56:50.000Z,17.27
2023-01-18T22:59:17.569Z,18.07
2023-01-18T23:01:44.732Z,16.90
2023-01-18T23:04:12.162Z,18.63
2023-01-18T23:06:48.169Z,19.20
2023-01-18T23:09:17.302Z,17.60
2023-01-18T23:11:45.253Z,22.70
2023-01-18T23:14:30.945Z,17.83
2023-01-18T23:17:16.698Z,19.80
2023-01-18T23:19:44.060Z,20.87
2023-01-18T23:22:11.322Z,19.30
2023-01-18T23:24:39.975Z,21.40
2023-01-18T23:27:08.402Z,25.97
2023-01-18T23:29:35.685Z,26.43
2023-01-18T23:32:02.742Z,27.03
2023-01-18T23:34:30.007Z,25.60
2023-01-18T23:36:56.928Z,19.90
2023-01-18T23:39:42.768Z,18.47
2023-01-18T23:42:27.866Z,20.13
2023-01-18T23:45:13.620Z,19.53
2023-01-18T23:47:59.117Z,24.83
2023-01-18T23:50:45.276Z,24.40
2023-01-18T23:53:31.590Z,30.17
2023-01-18T23:55:59.771Z,36.93
2023-01-18T23:58:26.908Z,25.60
